Time;durP1;ratioP1;P1;durP2;ratioP2;P2;SDS_P1;SDS_P2;PMS_P1;PMS_P2;Temp;Humidity;BMP_temperature;BMP_pressure;BME280_temperature;BME280_humidity;BME280_pressure;Samples;Min_cycle;Max_cycle;Signal;HPM_P1;HPM_P2
2022/03/27 00:00:31;;;;;;;18.83;10.70;;;8.10;65.00;;;;;;4987411;28;20465;-88
2022/03/27 00:02:57;;;;;;;19.53;9.50;;;8.20;65.00;;;;;;4985942;28;20435;-89
2022/03/27 00:05:24;;;;;;;15.30;9.80;;;8.20;65.30;;;;;;5007059;28;20467;-88
2022/03/27 00:07:50;;;;;;;16.17;9.83;;;8.20;65.70;;;;;;4966258;28;20455;-88
2022/03/27 00:10:17;;;;;;;22.00;11.97;;;8.10;65.50;;;;;;4992009;28;20448;-88
2022/03/27 00:12:45;;;;;;;18.07;10.23;;;8.10;66.10;;;;;;4981283;28;20574;-89
2022/03/27 00:15:49;;;;;;;15.57;10.93;;;7.90;66.40;;;;;;4999709;28;20467;-88
2022/03/27 00:18:15;;;;;;;19.43;11.13;;;7.80;66.70;;;;;;4989405;28;20993;-88
2022/03/27 00:20:40;;;;;;;18.20;11.00;;;7.70;67.10;;;;;;4988055;28;20649;-88
2022/03/27 00:23:08;;;;;;;19.00;10.80;;;7.80;67.20;;;;;;4990254;28;20204;-88
2022/03/27 00:25:33;;;;;;;20.57;11.50;;;7.70;67.20;;;;;;4968915;28;20697;-87
2022/03/27 00:27:59;;;;;;;16.47;10.47;;;7.80;67.20;;;;;;4987682;28;20459;-87
2022/03/27 00:30:24;;;;;;;14.50;10.50;;;7.80;67.00;;;;;;4988552;28;20201;-88
2022/03/27 00:32:50;;;;;;;20.87;12.00;;;7.80;67.20;;;;;;4989668;28;20196;-88
2022/03/27 00:35:15;;;;;;;17.73;11.33;;;7.80;67.30;;;;;;4982525;28;20267;-88
2022/03/27 00:37:41;;;;;;;16.90;10.83;;;7.80;67.60;;;;;;4983374;28;20181;-89
2022/03/27 00:40:09;;;;;;;16.40;11.93;;;7.60;67.80;;;;;;4987227;28;20211;-88
2022/03/27 00:42:34;;;;;;;16.20;11.00;;;7.50;68.30;;;;;;4978496;28;20812;-89
2022/03/27 00:45:00;;;;;;;19.10;12.00;;;7.50;68.40;;;;;;4996004;28;20439;-89
2022/03/27 00:47:26;;;;;;;21.27;11.90;;;7.40;69.70;;;;;;4998008;28;20196;-88
2022/03/27 00:49:51;;;;;;;21.13;11.40;;;7.40;70.60;;;;;;4984686;28;20189;-86
2022/03/27 00:52:17;;;;;;;23.60;11.57;;;7.30;70.90;;;;;;4976022;28;20193;-87
2022/03/27 00:54:42;;;;;;;17.87;12.10;;;7.20;71.20;;;;;;4983751;28;20263;-87
2022/03/27 00:57:08;;;;;;;16.77;11.33;;;7.20;71.60;;;;;;4986507;28;20197;-88
2022/03/27 00:59:36;;;;;;;22.50;12.27;;;7.10;72.50;;;;;;4985534;28;20321;-88
2022/03/27 01:02:10;;;;;;;19.47;11.13;;;7.00;73.80;;;;;;4979273;28;20217;-88
2022/03/27 01:04:44;;;;;;;17.30;10.90;;;7.10;74.50;;;;;;4985426;28;20442;-88
2022/03/27 01:07:16;;;;;;;20.37;10.97;;;7.10;75.10;;;;;;4981817;28;20435;-87
2022/03/27 01:09:41;;;;;;;20.50;10.83;;;7.00;74.10;;;;;;4984581;28;20462;-88
2022/03/27 01:12:22;;;;;;;21.57;11.80;;;7.00;73.60;;;;;;4983582;28;20491;-88
2022/03/27 01:14:49;;;;;;;19.20;11.10;;;6.80;73.40;;;;;;4985023;28;20565;-89
2022/03/27 01:17:19;;;;;;;18.80;11.00;;;6.70;74.00;;;;;;4983103;28;20438;-88
2022/03/27 01:19:54;;;;;;;17.83;10.90;;;6.70;74.30;;;;;;4986817;28;20750;-88
2022/03/27 01:22:21;;;;;;;17.67;11.03;;;6.80;74.70;;;;;;4983228;28;20834;-88
2022/03/27 01:24:49;;;;;;;16.67;10.30;;;6.80;75.50;;;;;;4989045;28;20444;-88
2022/03/27 01:27:15;;;;;;;15.77;11.07;;;6.80;75.30;;;;;;4985220;28;20422;-87
2022/03/27 01:29:41;;;;;;;20.20;10.80;;;6.80;75.50;;;;;;4991264;28;20608;-86
2022/03/27 01:32:10;;;;;;;16.53;11.10;;;6.70;76.40;;;;;;4981183;28;21336;-88
2022/03/27 01:34:35;;;;;;;17.47;10.70;;;6.60;76.50;;;;;;4991899;28;20209;-88
2022/03/27 01:37:06;;;;;;;23.10;11.10;;;6.60;78.00;;;;;;4983618;28;20446;-87
2022/03/27 01:39:32;;;;;;;18.80;10.93;;;6.70;78.00;;;;;;4987522;28;20190;-87
2022/03/27 01:42:00;;;;;;;17.40;11.50;;;6.70;78.00;;;;;;4989981;28;20446;-88
2022/03/27 01:44:30;;;;;;;20.90;11.40;;;6.80;77.70;;;;;;4986063;28;20478;-88
2022/03/27 01:46:57;;;;;;;22.80;11.80;;;6.90;76.90;;;;;;4983510;28;20443;-87
2022/03/27 01:49:24;;;;;;;21.93;12.00;;;6.90;77.30;;;;;;4987152;28;20781;-87
2022/03/27 01:51:50;;;;;;;23.27;11.97;;;6.90;77.60;;;;;;4983063;28;21018;-87
2022/03/27 01:54:16;;;;;;;16.80;12.50;;;6.90;78.30;;;;;;4985208;28;20484;-87
2022/03/27 01:56:42;;;;;;;22.33;12.03;;;7.00;77.30;;;;;;4978597;28;20288;-88
2022/03/27 01:59:09;;;;;;;23.77;12.13;;;7.10;77.30;;;;;;4988538;28;20191;-87
2022/03/27 02:01:36;;;;;;;21.50;13.50;;;6.90;76.40;;;;;;4983713;28;20434;-87
2022/03/27 02:04:11;;;;;;;20.70;12.80;;;6.80;76.50;;;;;;4983300;28;20527;-87
2022/03/27 02:07:06;;;;;;;22.67;12.97;;;6.80;77.20;;;;;;4976688;28;20458;-88
2022/03/27 02:09:33;;;;;;;22.87;13.53;;;6.80;77.20;;;;;;4983432;28;20593;-87
2022/03/27 02:11:59;;;;;;;22.23;13.10;;;6.70;78.00;;;;;;4984640;28;20455;-87
2022/03/27 02:14:27;;;;;;;22.37;13.90;;;6.50;80.10;;;;;;4987820;28;20884;-88
2022/03/27 02:16:53;;;;;;;18.67;13.70;;;6.40;80.40;;;;;;4982775;28;20448;-88
2022/03/27 02:19:20;;;;;;;16.27;12.07;;;6.40;81.30;;;;;;4982424;28;20217;-88
2022/03/27 02:21:52;;;;;;;20.17;12.50;;;6.40;81.60;;;;;;4977290;28;20447;-88
2022/03/27 02:24:20;;;;;;;19.30;11.97;;;6.30;81.70;;;;;;4980796;28;20502;-88
2022/03/27 02:26:47;;;;;;;22.60;11.93;;;6.30;82.70;;;;;;4999573;28;20491;-87
2022/03/27 02:29:16;;;;;;;21.97;10.97;;;6.20;83.30;;;;;;4985271;28;20454;-88
2022/03/27 02:31:43;;;;;;;17.57;11.50;;;6.20;84.30;;;;;;4997669;28;20446;-88
2022/03/27 02:34:14;;;;;;;16.33;10.80;;;6.10;85.60;;;;;;4984151;28;20840;-88
2022/03/27 02:36:40;;;;;;;24.03;12.03;;;6.00;86.40;;;;;;4985211;28;20448;-86
2022/03/27 02:39:23;;;;;;;17.90;11.73;;;6.00;87.00;;;;;;4983882;28;20474;-88
2022/03/27 02:41:49;;;;;;;22.10;12.73;;;6.00;87.20;;;;;;4983299;28;20493;-88
2022/03/27 02:44:14;;;;;;;21.07;13.10;;;6.00;87.40;;;;;;4984912;28;20443;-87
2022/03/27 02:46:40;;;;;;;22.37;13.63;;;5.90;88.10;;;;;;4978203;28;20189;-88
2022/03/27 02:49:18;;;;;;;21.63;11.27;;;5.90;88.90;;;;;;4992315;28;20268;-88
2022/03/27 02:51:45;;;;;;;19.10;10.20;;;5.70;88.80;;;;;;4981932;28;20448;-87
2022/03/27 02:54:12;;;;;;;17.13;11.50;;;5.60;88.60;;;;;;4964962;28;20520;-88
2022/03/27 02:56:38;;;;;;;19.83;13.07;;;5.60;88.40;;;;;;4986664;28;20444;-88
2022/03/27 02:59:04;;;;;;;20.30;10.70;;;5.50;88.50;;;;;;4990981;28;20532;-87
2022/03/27 03:01:31;;;;;;;21.63;12.10;;;5.40;88.20;;;;;;4977832;28;20435;-88
2022/03/27 03:03:57;;;;;;;17.57;10.20;;;5.10;89.10;;;;;;4981876;28;20440;-87
2022/03/27 03:06:24;;;;;;;18.60;10.60;;;5.00;90.50;;;;;;4979376;28;20444;-87
2022/03/27 03:08:53;;;;;;;20.97;11.83;;;5.00;91.20;;;;;;4989800;28;20515;-87
2022/03/27 03:11:21;;;;;;;19.13;10.57;;;5.00;91.70;;;;;;4979612;28;20539;-87
2022/03/27 03:13:56;;;;;;;19.90;11.47;;;4.90;92.00;;;;;;4983064;28;20490;-87
2022/03/27 03:16:30;;;;;;;20.07;10.23;;;4.80;92.20;;;;;;4977752;28;20506;-87
2022/03/27 03:19:04;;;;;;;18.30;10.87;;;4.80;93.30;;;;;;4982009;28;20442;-87
2022/03/27 03:21:30;;;;;;;20.63;10.07;;;4.80;93.60;;;;;;4980086;28;20481;-87
2022/03/27 03:24:05;;;;;;;19.53;11.20;;;4.80;94.10;;;;;;4978917;28;20438;-86
2022/03/27 03:26:30;;;;;;;17.67;10.17;;;4.70;94.70;;;;;;4981918;28;20464;-87
2022/03/27 03:28:56;;;;;;;17.43;11.37;;;4.70;95.10;;;;;;4987994;28;20468;-87
2022/03/27 03:31:22;;;;;;;22.00;11.87;;;4.80;95.20;;;;;;4983000;28;20245;-88
2022/03/27 03:33:48;;;;;;;18.50;11.67;;;4.90;94.70;;;;;;4984079;28;20955;-87
2022/03/27 03:36:15;;;;;;;24.20;11.23;;;5.00;94.30;;;;;;4975883;28;20444;-88
2022/03/27 03:38:41;;;;;;;15.70;10.47;;;5.00;93.90;;;;;;4986890;28;20184;-87
2022/03/27 03:41:08;;;;;;;16.73;9.83;;;5.00;93.80;;;;;;4999450;28;20939;-88
2022/03/27 03:43:36;;;;;;;13.87;9.50;;;4.90;94.10;;;;;;4997643;28;20419;-88
2022/03/27 03:46:03;;;;;;;20.13;10.57;;;4.80;94.70;;;;;;4981895;28;20521;-87
2022/03/27 03:48:29;;;;;;;18.23;11.17;;;4.80;94.60;;;;;;4984819;28;20899;-87
2022/03/27 03:50:55;;;;;;;12.13;10.10;;;4.80;94.70;;;;;;4985682;28;20523;-87
2022/03/27 03:53:21;;;;;;;18.30;10.80;;;4.80;94.90;;;;;;4982959;28;20440;-88
2022/03/27 03:55:47;;;;;;;17.70;10.80;;;4.80;94.60;;;;;;4979003;28;20706;-86
2022/03/27 03:58:12;;;;;;;17.70;10.93;;;4.90;95.20;;;;;;4985376;28;20448;-87
2022/03/27 04:00:41;;;;;;;17.80;10.20;;;4.80;95.00;;;;;;4976434;28;20552;-88
2022/03/27 04:03:30;;;;;;;20.33;11.37;;;4.60;95.30;;;;;;4987252;28;20180;-87
2022/03/27 04:06:11;;;;;;;16.57;10.23;;;4.60;95.70;;;;;;4981272;28;20450;-88
2022/03/27 04:08:47;;;;;;;18.60;10.00;;;4.60;95.70;;;;;;4977094;28;20877;-88
2022/03/27 04:11:16;;;;;;;17.10;10.90;;;4.40;95.70;;;;;;4982007;28;20443;-88
2022/03/27 04:13:43;;;;;;;18.83;11.40;;;4.40;96.50;;;;;;4958724;28;20451;-89
2022/03/27 04:16:13;;;;;;;17.30;10.00;;;4.40;96.40;;;;;;4960095;28;20489;-88
2022/03/27 04:18:44;;;;;;;19.87;10.97;;;4.30;96.60;;;;;;4973112;28;20440;-89
2022/03/27 04:21:30;;;;;;;18.97;11.50;;;4.40;96.30;;;;;;4981849;28;20440;-89
2022/03/27 04:24:04;;;;;;;19.33;11.00;;;4.40;97.30;;;;;;4989397;28;20571;-88
2022/03/27 04:26:29;;;;;;;21.53;11.97;;;4.40;96.30;;;;;;4987451;28;20427;-88
2022/03/27 04:28:55;;;;;;;20.13;11.40;;;4.40;95.70;;;;;;4975817;28;20449;-89
2022/03/27 04:31:20;;;;;;;20.10;12.90;;;4.30;95.50;;;;;;4974915;28;20528;-88
2022/03/27 04:33:46;;;;;;;19.23;11.23;;;4.30;95.80;;;;;;4975779;28;20634;-89
2022/03/27 04:36:11;;;;;;;21.30;12.67;;;4.10;96.00;;;;;;4977982;28;20678;-89
2022/03/27 04:38:37;;;;;;;25.07;14.60;;;4.10;96.50;;;;;;4980211;28;20187;-88
2022/03/27 04:41:03;;;;;;;20.83;11.10;;;4.20;96.20;;;;;;4980675;28;20551;-88
2022/03/27 04:43:29;;;;;;;21.20;12.20;;;4.20;96.10;;;;;;4974580;28;20183;-88
2022/03/27 04:45:55;;;;;;;21.40;12.50;;;4.20;96.30;;;;;;4975686;28;20500;-87
2022/03/27 04:48:21;;;;;;;16.00;11.70;;;4.30;96.20;;;;;;4976267;28;20200;-88
2022/03/27 04:50:47;;;;;;;19.50;11.13;;;4.30;96.20;;;;;;4984119;28;20527;-88
2022/03/27 04:53:13;;;;;;;23.40;12.40;;;4.20;95.90;;;;;;4975910;28;20177;-88
2022/03/27 04:55:39;;;;;;;18.77;11.50;;;4.10;96.00;;;;;;4977734;28;20834;-88
2022/03/27 04:58:09;;;;;;;18.37;10.20;;;4.00;96.40;;;;;;4989810;28;20182;-86
2022/03/27 05:00:44;;;;;;;18.30;11.00;;;3.90;96.80;;;;;;4990529;28;20447;-87
2022/03/27 05:03:15;;;;;;;16.93;10.13;;;4.00;96.70;;;;;;4988261;28;20479;-88
2022/03/27 05:05:41;;;;;;;17.53;9.83;;;3.90;96.30;;;;;;4988303;28;20437;-86
2022/03/27 05:08:07;;;;;;;15.40;9.63;;;3.80;96.70;;;;;;4991691;28;20445;-87
2022/03/27 05:10:55;;;;;;;18.10;10.37;;;3.80;96.60;;;;;;4986624;28;20199;-87
2022/03/27 05:13:30;;;;;;;15.77;9.30;;;3.60;96.50;;;;;;4989619;28;20432;-87
2022/03/27 05:16:02;;;;;;;16.27;10.37;;;3.40;97.40;;;;;;4972436;28;20565;-87
2022/03/27 05:18:53;;;;;;;18.97;11.40;;;3.50;96.80;;;;;;4985804;28;20447;-88
2022/03/27 05:21:35;;;;;;;15.93;10.77;;;3.60;97.60;;;;;;4983671;28;20443;-88
2022/03/27 05:24:25;;;;;;;21.60;11.00;;;3.60;98.00;;;;;;5004904;28;20823;-88
2022/03/27 05:26:55;;;;;;;18.27;12.00;;;3.70;98.10;;;;;;5009637;28;20472;-90
2022/03/27 05:29:21;;;;;;;22.23;11.67;;;3.60;97.90;;;;;;4986327;28;20471;-93
2022/03/27 05:31:47;;;;;;;16.57;10.77;;;3.60;97.80;;;;;;4985206;28;20527;-89
2022/03/27 05:34:12;;;;;;;22.13;11.53;;;3.60;98.00;;;;;;4982228;28;20422;-88
2022/03/27 05:36:38;;;;;;;18.37;11.00;;;3.60;98.00;;;;;;4985364;28;20827;-88
2022/03/27 05:39:03;;;;;;;17.63;10.77;;;3.60;98.10;;;;;;4984452;28;20180;-87
2022/03/27 05:41:29;;;;;;;22.43;11.00;;;3.60;98.60;;;;;;4990613;28;20196;-88
2022/03/27 05:43:55;;;;;;;17.40;10.23;;;3.70;98.90;;;;;;4987936;28;20611;-88
2022/03/27 05:46:20;;;;;;;16.90;10.97;;;3.90;98.70;;;;;;4987474;28;20194;-88
2022/03/27 05:48:46;;;;;;;17.80;10.87;;;4.00;98.10;;;;;;4986918;28;20188;-87
2022/03/27 05:51:12;;;;;;;16.40;11.13;;;4.00;97.80;;;;;;4983574;28;20190;-87
2022/03/27 05:53:37;;;;;;;17.97;10.97;;;4.10;97.60;;;;;;4981772;28;20470;-87
2022/03/27 05:56:03;;;;;;;17.13;10.83;;;4.10;97.30;;;;;;4986579;28;20194;-88
2022/03/27 05:58:29;;;;;;;18.40;12.10;;;4.20;97.10;;;;;;4976978;28;20203;-87
2022/03/27 06:00:55;;;;;;;23.10;11.47;;;4.10;97.50;;;;;;4979907;28;20445;-88
2022/03/27 06:03:23;;;;;;;19.97;11.47;;;4.20;97.70;;;;;;4984217;28;20631;-86
2022/03/27 06:06:03;;;;;;;15.80;10.50;;;4.20;97.70;;;;;;4980276;28;20239;-89
2022/03/27 06:08:57;;;;;;;23.20;11.80;;;4.20;97.70;;;;;;4980192;28;20467;-87
2022/03/27 06:11:23;;;;;;;23.83;12.17;;;4.20;98.10;;;;;;4979434;28;20446;-86
2022/03/27 06:13:49;;;;;;;22.07;11.20;;;4.40;97.90;;;;;;4976839;28;20447;-86
2022/03/27 06:16:15;;;;;;;16.20;11.13;;;4.60;97.50;;;;;;4980701;28;20543;-86
2022/03/27 06:18:40;;;;;;;15.03;10.50;;;5.00;96.20;;;;;;4974068;28;20440;-86
2022/03/27 06:21:06;;;;;;;23.77;11.77;;;5.10;95.90;;;;;;4973695;28;20532;-87
2022/03/27 06:24:06;;;;;;;17.43;11.10;;;5.30;95.30;;;;;;4971649;28;20856;-87
2022/03/27 06:26:55;;;;;;;21.40;13.10;;;5.40;95.00;;;;;;4976760;28;20205;-87
2022/03/27 06:29:29;;;;;;;18.80;10.30;;;5.50;94.40;;;;;;4977998;28;20578;-87
2022/03/27 06:31:57;;;;;;;19.33;10.10;;;5.40;94.50;;;;;;4968546;28;20469;-86
2022/03/27 06:34:26;;;;;;;14.13;10.00;;;5.40;94.70;;;;;;4971494;28;20468;-87
2022/03/27 06:36:52;;;;;;;18.53;11.60;;;5.40;94.80;;;;;;4980849;28;21025;-87
2022/03/27 06:39:20;;;;;;;19.10;10.97;;;5.30;95.10;;;;;;4988851;28;20428;-87
2022/03/27 06:41:47;;;;;;;17.80;11.67;;;5.30;95.40;;;;;;4976185;28;20187;-86
2022/03/27 06:44:13;;;;;;;19.77;12.20;;;5.30;95.50;;;;;;4975813;28;20526;-87
2022/03/27 06:46:39;;;;;;;22.90;14.13;;;5.40;95.50;;;;;;4974525;28;20193;-86
2022/03/27 06:49:07;;;;;;;23.87;11.40;;;5.60;95.20;;;;;;4970034;28;20547;-86
2022/03/27 06:51:34;;;;;;;20.07;11.40;;;5.80;94.60;;;;;;4970019;28;20975;-87
2022/03/27 06:54:00;;;;;;;17.10;10.57;;;6.00;94.20;;;;;;4984957;28;20189;-86
2022/03/27 06:56:27;;;;;;;16.83;11.53;;;6.20;93.90;;;;;;4987818;28;20523;-87
2022/03/27 06:58:52;;;;;;;20.40;10.57;;;6.40;93.60;;;;;;4986546;28;20428;-87
2022/03/27 07:04:02;;;;;;;19.80;12.80;;;6.90;92.70;;;;;;4997987;28;20193;-87
2022/03/27 07:06:30;;;;;;;19.47;12.20;;;7.10;92.20;;;;;;4983084;28;20447;-87
2022/03/27 07:08:56;;;;;;;19.13;11.73;;;7.20;91.90;;;;;;4985617;28;20195;-87
2022/03/27 07:11:25;;;;;;;18.47;11.90;;;7.40;91.80;;;;;;4981845;28;20446;-86
2022/03/27 07:13:50;;;;;;;17.13;11.17;;;7.50;91.50;;;;;;4982557;28;20206;-87
2022/03/27 07:16:18;;;;;;;26.40;12.60;;;7.50;91.60;;;;;;4978952;28;20481;-86
2022/03/27 07:18:49;;;;;;;18.90;12.03;;;7.70;91.70;;;;;;4982445;28;20188;-87
2022/03/27 07:21:16;;;;;;;15.80;11.40;;;7.70;91.60;;;;;;4996776;28;20477;-87
2022/03/27 07:23:41;;;;;;;20.10;12.53;;;7.90;91.60;;;;;;4983912;28;20420;-87
2022/03/27 07:26:07;;;;;;;19.60;11.43;;;8.10;91.50;;;;;;4984964;28;20896;-88
2022/03/27 07:28:32;;;;;;;18.97;11.30;;;8.30;91.20;;;;;;4985568;28;20183;-88
2022/03/27 07:31:03;;;;;;;16.90;12.00;;;8.40;90.70;;;;;;4985405;28;20234;-88
2022/03/27 07:33:29;;;;;;;23.93;12.10;;;8.60;90.50;;;;;;4977949;28;20296;-86
2022/03/27 07:35:57;;;;;;;20.33;12.23;;;8.70;90.20;;;;;;4985040;28;20440;-87
2022/03/27 07:38:38;;;;;;;23.20;13.17;;;8.90;90.10;;;;;;4984040;28;20445;-87
2022/03/27 07:41:15;;;;;;;21.23;13.00;;;9.20;89.20;;;;;;4986314;28;20212;-88
2022/03/27 07:43:41;;;;;;;18.13;12.30;;;9.50;88.60;;;;;;4982340;28;20450;-87
2022/03/27 07:46:07;;;;;;;16.80;12.73;;;9.70;87.20;;;;;;4987041;28;21019;-87
2022/03/27 07:48:53;;;;;;;19.97;13.10;;;9.80;85.50;;;;;;4985307;28;20323;-90
2022/03/27 07:51:19;;;;;;;20.80;12.13;;;9.90;84.60;;;;;;4984796;28;20202;-87
2022/03/27 07:53:45;;;;;;;19.63;13.60;;;10.20;84.00;;;;;;4973643;28;20798;-87
2022/03/27 07:56:15;;;;;;;18.53;11.63;;;10.50;86.60;;;;;;4978794;28;20185;-88
2022/03/27 07:59:05;;;;;;;18.40;13.10;;;10.80;87.10;;;;;;4996274;28;20196;-87
2022/03/27 08:01:48;;;;;;;20.53;11.90;;;11.00;86.60;;;;;;4974207;28;20498;-88
2022/03/27 08:04:38;;;;;;;14.93;11.37;;;11.10;87.60;;;;;;4970663;28;20479;-87
2022/03/27 08:07:03;;;;;;;15.80;11.50;;;11.20;86.00;;;;;;4960818;28;20551;-89
2022/03/27 08:09:33;;;;;;;16.37;12.30;;;11.30;85.10;;;;;;4982697;28;20455;-88
2022/03/27 08:11:59;;;;;;;16.83;11.03;;;11.40;86.50;;;;;;4980954;28;20451;-86
2022/03/27 08:14:28;;;;;;;17.13;12.17;;;11.50;84.10;;;;;;4987497;28;20503;-85
2022/03/27 08:16:55;;;;;;;19.90;12.47;;;11.60;86.30;;;;;;4978314;28;20902;-87
2022/03/27 08:19:22;;;;;;;17.83;11.77;;;11.60;85.50;;;;;;4982753;28;20487;-87
2022/03/27 08:21:48;;;;;;;16.90;11.37;;;11.70;84.30;;;;;;4984442;28;20509;-87
2022/03/27 08:24:13;;;;;;;18.23;12.33;;;11.90;84.50;;;;;;4980241;28;21080;-87
2022/03/27 08:26:58;;;;;;;14.13;11.00;;;12.10;83.30;;;;;;4985353;28;20632;-85
2022/03/27 08:29:29;;;;;;;16.90;11.60;;;12.30;82.90;;;;;;4987496;28;20567;-87
2022/03/27 08:32:20;;;;;;;16.47;11.90;;;12.40;83.00;;;;;;4980859;28;20443;-87
2022/03/27 08:34:57;;;;;;;15.93;11.67;;;12.50;84.40;;;;;;4981909;28;20929;-87
2022/03/27 08:37:22;;;;;;;17.80;11.70;;;12.40;82.50;;;;;;4967771;28;20991;-89
2022/03/27 08:39:48;;;;;;;16.20;11.97;;;12.60;81.60;;;;;;4990351;28;20912;-87
2022/03/27 08:42:16;;;;;;;17.50;12.27;;;12.80;81.50;;;;;;4982195;28;20673;-87
2022/03/27 08:44:42;;;;;;;15.43;11.73;;;13.00;79.70;;;;;;5003419;28;20236;-89
2022/03/27 08:47:17;;;;;;;17.00;11.53;;;13.10;79.50;;;;;;4985798;28;20802;-81
2022/03/27 08:50:00;;;;;;;17.60;12.40;;;13.20;80.60;;;;;;4982082;28;20535;-80
2022/03/27 08:52:51;;;;;;;14.90;11.43;;;13.40;82.10;;;;;;4978716;28;20480;-82
2022/03/27 08:55:21;;;;;;;20.83;13.07;;;13.80;78.10;;;;;;4985872;28;20497;-81
2022/03/27 08:57:51;;;;;;;17.13;11.80;;;14.00;78.10;;;;;;4997252;28;20446;-81
2022/03/27 09:00:20;;;;;;;16.73;12.40;;;14.10;77.50;;;;;;4976178;28;20846;-82
2022/03/27 09:02:47;;;;;;;17.60;12.77;;;14.20;80.90;;;;;;4974671;28;20549;-87
2022/03/27 09:05:13;;;;;;;16.97;12.97;;;14.40;74.60;;;;;;4972366;28;20598;-86
2022/03/27 09:07:39;;;;;;;20.47;12.57;;;14.40;73.70;;;;;;4978201;28;20447;-87
2022/03/27 09:10:08;;;;;;;15.07;11.40;;;14.30;75.80;;;;;;4978119;28;20582;-88
2022/03/27 09:12:36;;;;;;;17.53;12.77;;;14.40;74.70;;;;;;4977604;28;20208;-87
2022/03/27 09:15:08;;;;;;;18.23;12.77;;;14.50;74.30;;;;;;4981584;28;20443;-89
2022/03/27 09:18:00;;;;;;;20.00;12.50;;;14.70;76.50;;;;;;4988000;28;20775;-88
2022/03/27 09:20:53;;;;;;;16.80;11.70;;;14.80;77.00;;;;;;4975316;28;20460;-90
2022/03/27 09:23:25;;;;;;;19.13;12.73;;;15.10;70.90;;;;;;4975909;28;20440;-88
2022/03/27 09:26:23;;;;;;;16.30;11.70;;;15.30;72.60;;;;;;4986926;28;20483;-90
2022/03/27 09:29:12;;;;;;;15.10;11.70;;;15.50;71.10;;;;;;4985270;28;20450;-88
2022/03/27 09:31:37;;;;;;;17.97;11.07;;;15.60;68.50;;;;;;4991350;28;20488;-89
2022/03/27 09:34:03;;;;;;;17.13;11.70;;;15.80;66.90;;;;;;4984082;28;20447;-88
2022/03/27 09:36:37;;;;;;;16.40;11.47;;;16.20;64.00;;;;;;4985816;28;20624;-88
2022/03/27 09:39:35;;;;;;;18.50;12.10;;;16.20;64.50;;;;;;4988020;28;20428;-88
2022/03/27 09:42:03;;;;;;;15.60;10.03;;;16.30;63.60;;;;;;4948437;28;20425;-88
2022/03/27 09:44:28;;;;;;;15.77;11.23;;;16.50;64.30;;;;;;4987768;28;20860;-89
2022/03/27 09:47:05;;;;;;;15.63;12.27;;;16.60;64.30;;;;;;5000574;28;20448;-88
2022/03/27 09:49:31;;;;;;;21.90;11.63;;;16.80;63.30;;;;;;4988926;28;20211;-88
2022/03/27 09:52:01;;;;;;;14.80;10.60;;;16.80;62.40;;;;;;4979262;28;20530;-86
2022/03/27 09:54:42;;;;;;;16.77;11.83;;;17.20;65.30;;;;;;4974080;28;20478;-87
2022/03/27 09:57:23;;;;;;;19.63;11.53;;;17.30;61.50;;;;;;4977241;28;20443;-88
2022/03/27 09:59:50;;;;;;;18.33;14.10;;;17.60;62.30;;;;;;4990791;28;20524;-86
2022/03/27 10:02:19;;;;;;;17.83;11.83;;;17.70;66.20;;;;;;4972617;28;20435;-87
2022/03/27 10:05:01;;;;;;;16.27;11.53;;;17.50;61.90;;;;;;4986652;28;20506;-86
2022/03/27 10:07:32;;;;;;;13.80;11.10;;;17.50;63.70;;;;;;4968035;28;20433;-87
2022/03/27 10:09:58;;;;;;;14.23;11.70;;;17.50;63.10;;;;;;4972910;28;20453;-87
2022/03/27 10:12:29;;;;;;;18.10;11.90;;;18.00;62.00;;;;;;4975403;28;20896;-88
2022/03/27 10:15:00;;;;;;;17.70;11.90;;;17.80;61.40;;;;;;4967325;28;20190;-89
2022/03/27 10:17:27;;;;;;;18.13;11.60;;;17.90;60.50;;;;;;4975379;28;20439;-88
2022/03/27 10:20:13;;;;;;;17.60;13.50;;;18.00;58.10;;;;;;4977821;28;20448;-87
2022/03/27 10:22:42;;;;;;;15.70;12.07;;;18.30;59.30;;;;;;4973952;28;20455;-87
2022/03/27 10:25:10;;;;;;;18.07;12.33;;;18.40;58.60;;;;;;4969963;28;20475;-88
2022/03/27 10:27:38;;;;;;;14.30;11.00;;;18.80;58.40;;;;;;4973649;28;20452;-90
2022/03/27 10:30:05;;;;;;;18.97;10.87;;;19.00;58.50;;;;;;4977881;28;21335;-88
2022/03/27 10:32:32;;;;;;;17.33;11.53;;;19.00;57.90;;;;;;4972212;28;20451;-88
2022/03/27 10:35:14;;;;;;;15.37;10.80;;;18.90;58.60;;;;;;4978698;28;20945;-88
2022/03/27 10:37:50;;;;;;;13.03;10.90;;;19.10;55.50;;;;;;4966036;28;20514;-88
2022/03/27 10:40:34;;;;;;;18.00;11.90;;;19.50;55.60;;;;;;4978776;28;20447;-89
2022/03/27 10:43:18;;;;;;;18.93;10.10;;;19.60;54.90;;;;;;4992833;28;20860;-88
2022/03/27 10:45:45;;;;;;;17.30;10.53;;;19.50;52.40;;;;;;4969165;28;20478;-88
2022/03/27 10:48:16;;;;;;;16.10;12.40;;;19.30;54.40;;;;;;4976455;28;20436;-87
2022/03/27 10:50:50;;;;;;;15.90;11.70;;;19.40;54.30;;;;;;4973815;28;20856;-87
2022/03/27 10:53:17;;;;;;;14.50;11.30;;;19.70;54.60;;;;;;4976433;28;20446;-87
2022/03/27 10:55:45;;;;;;;16.70;11.67;;;20.30;52.10;;;;;;4977600;28;20467;-88
2022/03/27 10:58:36;;;;;;;17.67;11.90;;;20.10;53.40;;;;;;4973721;28;20443;-88
2022/03/27 11:01:09;;;;;;;14.53;12.00;;;19.90;51.50;;;;;;4973028;28;20444;-88
2022/03/27 11:03:48;;;;;;;17.20;11.47;;;19.90;54.30;;;;;;4972589;28;20446;-89
2022/03/27 11:06:31;;;;;;;16.87;11.47;;;20.30;51.50;;;;;;4977866;28;21083;-91
2022/03/27 11:08:59;;;;;;;16.50;11.40;;;20.30;50.80;;;;;;4977441;28;20525;-88
2022/03/27 11:11:52;;;;;;;15.10;12.03;;;19.90;51.10;;;;;;4971915;28;20538;-88
2022/03/27 11:14:53;;;;;;;13.30;10.27;;;20.10;51.50;;;;;;4972924;28;20443;-89
2022/03/27 11:17:44;;;;;;;15.77;11.23;;;20.60;50.30;;;;;;4954142;28;20440;-89
2022/03/27 11:20:21;;;;;;;17.20;11.07;;;20.80;50.10;;;;;;4978522;28;20808;-89
2022/03/27 11:22:54;;;;;;;15.30;11.43;;;21.10;48.70;;;;;;4993115;28;20451;-90
2022/03/27 11:25:37;;;;;;;16.83;11.30;;;21.40;47.80;;;;;;4979100;28;20572;-88
2022/03/27 11:28:11;;;;;;;15.10;10.60;;;21.20;47.20;;;;;;4987508;28;20988;-89
2022/03/27 11:30:58;;;;;;;14.63;10.20;;;21.30;46.60;;;;;;4978565;28;20975;-89
2022/03/27 11:33:30;;;;;;;12.23;9.27;;;21.60;46.10;;;;;;4963941;28;20435;-90
2022/03/27 11:36:08;;;;;;;17.57;10.47;;;22.00;46.70;;;;;;4979562;28;20435;-87
2022/03/27 11:38:36;;;;;;;15.50;10.70;;;22.00;40.10;;;;;;4976639;28;20451;-88
2022/03/27 11:41:21;;;;;;;19.80;11.37;;;21.60;45.50;;;;;;4979562;28;20551;-88
2022/03/27 11:43:47;;;;;;;13.40;10.37;;;21.60;44.50;;;;;;4980701;28;20439;-89
2022/03/27 11:46:29;;;;;;;13.33;9.60;;;21.70;42.30;;;;;;4980215;28;20569;-89
2022/03/27 11:48:55;;;;;;;15.30;9.80;;;21.90;42.70;;;;;;4981913;28;20184;-89
2022/03/27 11:51:26;;;;;;;13.47;9.03;;;22.00;42.00;;;;;;4972642;28;20528;-88
2022/03/27 11:53:59;;;;;;;13.50;9.87;;;21.70;42.50;;;;;;4986822;28;20442;-89
2022/03/27 11:56:26;;;;;;;12.43;8.33;;;22.20;38.10;;;;;;4973584;28;21341;-89
2022/03/27 11:59:12;;;;;;;13.40;9.37;;;22.20;40.50;;;;;;4963897;28;20479;-90
2022/03/27 12:02:00;;;;;;;12.27;9.27;;;22.30;40.40;;;;;;4980643;28;20462;-91
2022/03/27 12:04:29;;;;;;;13.23;8.97;;;22.30;40.00;;;;;;4961785;28;20467;-90
2022/03/27 12:07:02;;;;;;;14.23;9.60;;;22.30;40.30;;;;;;4968219;28;20452;-90
2022/03/27 12:09:57;;;;;;;13.53;9.43;;;22.40;39.10;;;;;;4988183;28;21051;-90
2022/03/27 12:13:08;;;;;;;11.83;9.03;;;22.20;38.40;;;;;;4968885;28;20459;-90
2022/03/27 12:16:03;;;;;;;11.17;8.33;;;22.10;39.50;;;;;;4962341;28;20510;-92
2022/03/27 12:18:32;;;;;;;12.03;7.83;;;22.00;39.10;;;;;;4999509;28;20943;-91
2022/03/27 12:21:01;;;;;;;12.00;8.83;;;22.20;38.30;;;;;;4987100;28;20444;-86
2022/03/27 12:23:35;;;;;;;8.70;7.30;;;22.30;37.80;;;;;;4957161;28;20704;-87
2022/03/27 12:32:03;;;;;;;15.20;8.70;;;22.50;35.80;;;;;;4978885;28;20479;-90
2022/03/27 12:34:33;;;;;;;14.00;9.30;;;22.50;36.70;;;;;;4965492;28;20519;-90
2022/03/27 12:37:26;;;;;;;11.10;8.23;;;22.60;36.70;;;;;;4967651;28;21518;-94
2022/03/27 12:39:53;;;;;;;13.03;7.80;;;23.00;34.20;;;;;;4989433;28;20440;-92
2022/03/27 12:42:43;;;;;;;13.47;8.90;;;22.80;36.60;;;;;;4975718;28;20544;-95
2022/03/27 12:45:29;;;;;;;11.10;8.10;;;22.60;36.40;;;;;;4977657;28;20522;-96
2022/03/27 12:48:00;;;;;;;11.97;9.20;;;22.80;36.00;;;;;;4981500;28;20593;-95
2022/03/27 12:50:32;;;;;;;12.00;8.50;;;23.20;35.40;;;;;;4986746;28;20772;-93
2022/03/27 12:53:07;;;;;;;12.20;8.20;;;23.20;38.90;;;;;;4995557;28;20443;-95
2022/03/27 12:55:45;;;;;;;12.43;9.00;;;23.50;33.30;;;;;;4987450;28;21036;-95
2022/03/27 12:58:11;;;;;;;14.37;8.13;;;23.90;34.40;;;;;;5001232;28;20447;-94
2022/03/27 13:00:40;;;;;;;14.57;8.20;;;24.20;36.30;;;;;;4984252;28;20515;-95
2022/03/27 13:03:14;;;;;;;11.20;8.83;;;24.20;33.60;;;;;;4987180;28;20443;-95